AirNav   Air Wisconsin Up To $57,000 Bonus
 
 1138 users online  

CD28 Tall Timber Airport
Indian Hills, Colorado, USA

GOING TO INDIAN HILLS?


FAA INFORMATION EFFECTIVE 02 JANUARY 2020

Location

FAA Identifier: CD28
Lat/Long: 39-38-37.9800N 105-16-03.4800W
39-38.633000N 105-16.058000W
39.6438833,-105.2676333
(estimated)
Elevation: 7360 ft. / 2243 m (estimated)
From city: 6 miles N of INDIAN HILLS, CO
Time zone: UTC -7 (UTC -6 during Daylight Saving Time)
Zip code: 80465

Airport Operations

Airport use: Private use. Permission required prior to landing
Activation date: 03/2003
Control tower: no
ARTCC: DENVER CENTER
FSS: DENVER FLIGHT SERVICE STATION
Attendance: UNATNDD
Wind indicator: yes
Segmented circle: no

Airport Communications

WX AWOS-3 at BJC (17 nm NE): PHONE 720-887-8067
WX ASOS at APA (20 nm E): PHONE 720-873-2799

Nearby radio navigation aids

VOR radial/distance  VOR name  Freq  Var
BJCr189/17.2JEFFCO VOR/DME115.4011E
DENr242/29.8DENVER VOR/DME117.9008E
FQFr254/30.0FALCON VORTAC116.3011E
DVVr235/33.3MILE HIGH VORTAC114.7008E

Airport Services

Runway Information

Runway 13/31

Dimensions: 1800 x 40 ft. / 549 x 12 m
Surface: turf
RUNWAY 13  RUNWAY 31
Traffic pattern: leftleft
Obstructions: 50 ft. trees, 300 ft. from runway50 ft. trees, 150 ft. from runway

Airport Ownership and Management from official FAA records

Ownership: Privately-owned
Owner: JAMES G. LEPRINO
9626 METRO AIRPORT AVE
BROOMFIELD, CO 80021
Phone 303-469-5577
Manager: ROY HALLADAY
9566 METRO AIRPORT AVE
BROOMFIELD, CO 80021
Phone 303-469-5577

Additional Remarks

FOR CD CTC DENVER APCH AT 303-342-1916.

Instrument Procedures

There are no published instrument procedures at CD28.

Some nearby airports with instrument procedures:

KBJC - Rocky Mountain Metropolitan Airport (17 nm NE)
KAPA - Centennial Airport (20 nm E)
KBKF - Buckley Air Force Base (24 nm E)
KEIK - Erie Municipal Airport (24 nm NE)
KDEN - Denver International Airport (30 nm NE)
 
Loc | Ops | Rwys | IFR | FBO | Links
Com | Nav | Svcs | Stats | Notes

AirBoss

 
Area around CD28 (Tall Timber Airport)
 
Road maps at: MapQuest Bing Google
 
Aerial photo
No photo
 
Sectional chart

 
Airport distance calculator
Flying to Tall Timber Airport? Find the distance to fly.

From to CD28

Sunrise and sunset
Times for 26-Jan-2020
 Local
(UTC-7)
 Zulu
(UTC)
Morning civil twilight06:4613:46
Sunrise07:1514:15
Sunset17:1300:13
Evening civil twilight17:4100:41

Current date and time
Zulu (UTC)  26-Jan-2020 18:47:43
Local (UTC-7)  26-Jan-2020 11:47:43
 
METAR
KBJC 
18nm NE 
261755Z VRB05KT 10SM FEW080 10/M08 A3005
KAPA 
20nm E 
261753Z 07005KT 10SM FEW070 FEW140 SCT200 09/M08 A3005 RMK AO2 SLP173 ACSL DSNT S-W-N T00941083 10094 21039 58002
K1V5 
24nm N 
AWOS 118.825 303-541-9540
No observation available
KBDU 
24nm N 
261830Z AUTO 36005KT 10SM CLR 09/M06 A3004 RMK AO2
KEIK 
24nm NE 
261842Z AUTO 12008KT 10SM CLR 11/M08 A3009 RMK AO2 T01051085
KBKF 
24nm E 
261758Z 10006KT 10SM FEW110 BKN200 09/M08 A3005 RMK AO2A SLP164 T00941078 10094 21029 58003
K0CO 
25nm W 
261830Z AUTO 31032G43KT CLR M10/M18 A3008 RMK AO2 PWINO
KDEN 
31nm E 
261753Z 10011KT 10SM FEW100 FEW150 SCT220 09/M07 A3006 RMK AO2 SLP167 ACSL DSNT SW-NW T00891072 10089 21050 50000
KLMO 
32nm N 
261835Z AUTO 00000KT 10SM CLR 11/M06 A3006 RMK AO2 T01101065
KFTG 
34nm E 
261758Z 09009KT 10SM SCT120 SCT220 09/M06 A3007
TAF
KBJC 
18nm NE 
261751Z 2618/2718 VRB04KT P6SM FEW100 FM262000 27010G18KT P6SM FEW100 BKN220 FM270200 29008KT P6SM SCT100 BKN220 FM271200 33008KT P6SM BKN060 OVC100 PROB30 2716/2718 -SHSN
KAPA 
20nm E 
261739Z 2618/2718 13004KT P6SM FEW100 FM262000 02008KT P6SM FEW100 BKN220 FM270000 16007KT P6SM SCT100 BKN220 FM271200 20004KT P6SM SCT040 OVC060 PROB30 2716/2718 -SHSN BKN040
NOTAMs
Click for the latest NOTAMs
NOTAMs are issued by the DoD/FAA and will open in a separate window not controlled by AirNav.

 

 
 

Would you like to see your business listed on this page?

 If your business provides an interesting product or service to pilots, flight crews, aircraft, or users of the Tall Timber Airport, you should consider listing it here.  To start the listing process, click on the button below
 
Add a business
 

Other Pages about Tall Timber Airport

Update a link
 
Copyright © AirNav, LLC. All rights reserved. Privacy Policy  Contact